createdAt,value
2023-02-24T00:01:59.811Z,35.00
2023-02-24T00:04:29.444Z,30.25
2023-02-24T00:06:56.231Z,29.98
2023-02-24T00:09:26.108Z,29.42
2023-02-24T00:11:58.391Z,32.30
2023-02-24T00:14:27.833Z,31.02
2023-02-24T00:16:54.560Z,26.20
2023-02-24T00:19:23.611Z,26.60
2023-02-24T00:21:51.800Z,26.17
2023-02-24T00:24:18.656Z,24.63
2023-02-24T00:26:48.385Z,27.10
2023-02-24T00:29:14.800Z,19.52
2023-02-24T00:31:43.222Z,22.38
2023-02-24T00:34:12.545Z,24.83
2023-02-24T00:36:39.632Z,26.27
2023-02-24T00:41:40.855Z,26.63
2023-02-24T00:44:14.230Z,22.33
2023-02-24T00:46:45.878Z,23.65
2023-02-24T00:49:17.174Z,22.13
2023-02-24T00:51:46.792Z,20.65
2023-02-24T00:54:14.964Z,25.15
2023-02-24T00:56:46.895Z,20.50
2023-02-24T00:59:16.219Z,22.30
2023-02-24T01:01:45.131Z,20.58
2023-02-24T01:04:13.870Z,19.73
2023-02-24T01:06:43.419Z,22.08
2023-02-24T01:09:12.271Z,19.00
2023-02-24T01:11:58.195Z,23.17
2023-02-24T01:14:28.248Z,24.17
2023-02-24T01:16:55.306Z,20.40
2023-02-24T01:19:25.083Z,23.20
2023-02-24T01:21:55.176Z,22.38
2023-02-24T01:24:23.727Z,25.30
2023-02-24T01:26:50.702Z,25.33
2023-02-24T01:29:17.286Z,25.15
2023-02-24T01:31:44.013Z,21.85
2023-02-24T01:36:38.670Z,22.13
2023-02-24T01:39:06.979Z,23.00
2023-02-24T01:41:33.531Z,26.67
2023-02-24T01:44:17.270Z,25.02
2023-02-24T01:46:46.048Z,20.17
2023-02-24T01:49:17.798Z,20.42
2023-02-24T01:51:49.936Z,21.13
2023-02-24T01:54:20.634Z,21.92
2023-02-24T01:56:49.843Z,25.13
2023-02-24T01:59:16.708Z,21.77
2023-02-24T02:01:45.895Z,22.33
2023-02-24T02:04:20.643Z,22.50
2023-02-24T02:06:48.107Z,25.45
2023-02-24T02:09:15.656Z,23.13
2023-02-24T02:11:45.850Z,24.42
2023-02-24T02:14:12.750Z,27.10
2023-02-24T02:17:09.654Z,25.67
2023-02-24T02:20:19.963Z,29.48
2023-02-24T02:22:59.186Z,23.65
2023-02-24T02:25:47.651Z,24.77
2023-02-24T02:28:35.830Z,26.70
2023-02-24T02:31:29.159Z,24.48
2023-02-24T02:34:29.796Z,28.13
2023-02-24T02:37:18.024Z,30.83
2023-02-24T02:40:00.204Z,31.98
2023-02-24T02:42:37.812Z,31.13
2023-02-24T02:45:18.485Z,31.65
2023-02-24T02:47:58.367Z,32.85
2023-02-24T02:50:35.789Z,32.10
2023-02-24T02:53:10.540Z,33.20
2023-02-24T02:55:45.886Z,44.05
2023-02-24T02:58:30.311Z,50.40
2023-02-24T03:01:03.401Z,47.00
2023-02-24T03:03:40.505Z,45.97
2023-02-24T03:06:16.249Z,40.60
2023-02-24T03:08:53.611Z,43.90
2023-02-24T03:11:20.602Z,40.85
2023-02-24T03:13:50.953Z,36.58
2023-02-24T03:16:19.631Z,29.27
2023-02-24T03:18:54.063Z,19.52
2023-02-24T03:21:33.387Z,20.48
2023-02-24T03:24:02.316Z,27.58
2023-02-24T03:26:37.219Z,21.50
2023-02-24T03:29:10.933Z,21.70
2023-02-24T03:31:43.748Z,22.63
2023-02-24T03:34:46.480Z,21.60
2023-02-24T03:37:13.014Z,27.23
2023-02-24T03:39:39.885Z,23.90
2023-02-24T03:42:12.788Z,22.10
2023-02-24T03:47:05.954Z,23.60
2023-02-24T03:49:32.419Z,22.90
2023-02-24T03:52:21.534Z,22.38
2023-02-24T03:54:59.238Z,23.35
2023-02-24T03:57:59.790Z,25.08
2023-02-24T04:00:44.629Z,22.85
2023-02-24T04:03:33.107Z,21.23
2023-02-24T04:06:18.414Z,27.42
2023-02-24T04:11:29.038Z,22.17
2023-02-24T04:14:06.366Z,19.75
2023-02-24T04:16:44.275Z,19.70
2023-02-24T04:19:16.392Z,19.30
2023-02-24T04:21:45.322Z,20.90
2023-02-24T04:24:15.839Z,20.13
2023-02-24T04:26:45.510Z,18.00
2023-02-24T04:29:20.437Z,24.92
2023-02-24T04:31:50.154Z,24.77
2023-02-24T04:34:19.963Z,21.63
2023-02-24T04:36:50.456Z,25.63
2023-02-24T04:39:20.984Z,23.08
2023-02-24T04:41:50.904Z,23.95
2023-02-24T04:44:19.616Z,24.85
2023-02-24T04:46:46.963Z,28.83
2023-02-24T04:49:13.522Z,24.67
2023-02-24T04:51:43.589Z,24.73
2023-02-24T04:54:13.887Z,24.70
2023-02-24T04:56:40.758Z,26.58
2023-02-24T04:59:10.161Z,28.80
2023-02-24T05:01:40.975Z,30.50
2023-02-24T05:04:08.225Z,25.05
2023-02-24T05:06:35.465Z,28.40
2023-02-24T05:11:34.801Z,25.20
2023-02-24T05:14:01.516Z,28.10
2023-02-24T05:16:28.748Z,28.38
2023-02-24T05:19:17.746Z,30.00
2023-02-24T05:21:44.185Z,28.52
2023-02-24T05:24:11.496Z,32.70
2023-02-24T05:26:41.631Z,35.40
2023-02-24T05:29:08.811Z,32.58
2023-02-24T05:34:04.592Z,38.88
2023-02-24T05:36:41.969Z,38.10
2023-02-24T05:39:12.320Z,43.33
2023-02-24T05:41:42.006Z,39.63
2023-02-24T05:44:12.540Z,37.63
2023-02-24T05:46:44.550Z,36.30
2023-02-24T05:49:25.983Z,43.88
2023-02-24T05:51:55.617Z,41.83
2023-02-24T05:54:30.929Z,42.45
2023-02-24T05:57:05.993Z,48.88
2023-02-24T05:59:33.073Z,45.67
2023-02-24T06:02:06.886Z,44.60
2023-02-24T06:04:40.803Z,46.90
2023-02-24T06:07:19.445Z,42.55
2023-02-24T06:09:53.647Z,36.38
2023-02-24T06:12:22.645Z,43.28
2023-02-24T06:14:49.165Z,44.45
2023-02-24T06:17:17.142Z,47.83
2023-02-24T06:19:45.267Z,37.90
2023-02-24T06:22:14.137Z,44.90
2023-02-24T06:24:49.132Z,44.22
2023-02-24T06:27:18.618Z,42.53
2023-02-24T06:29:50.209Z,46.58
2023-02-24T06:32:23.556Z,34.53
2023-02-24T06:34:51.966Z,41.20
2023-02-24T06:37:18.739Z,49.17
2023-02-24T06:39:45.770Z,38.20
2023-02-24T06:42:12.926Z,38.17
2023-02-24T06:44:41.073Z,42.20
2023-02-24T06:47:11.031Z,37.70
2023-02-24T06:49:37.663Z,38.90
2023-02-24T06:52:06.010Z,44.38
2023-02-24T06:54:35.716Z,33.75
2023-02-24T06:57:03.361Z,44.63
2023-02-24T06:59:30.205Z,37.17
2023-02-24T07:01:57.838Z,44.53
2023-02-24T07:04:27.868Z,47.17
2023-02-24T07:07:03.226Z,43.80
2023-02-24T07:09:31.273Z,44.50
2023-02-24T07:11:58.717Z,37.13
2023-02-24T07:14:27.667Z,34.63
2023-02-24T07:16:55.252Z,38.08
2023-02-24T07:19:27.499Z,33.33
2023-02-24T07:22:03.077Z,32.58
2023-02-24T07:24:40.566Z,33.10
2023-02-24T07:27:11.592Z,36.35
2023-02-24T07:29:38.777Z,29.20
2023-02-24T07:32:08.647Z,28.13
2023-02-24T07:34:39.701Z,35.95
2023-02-24T07:37:07.992Z,37.15
2023-02-24T07:39:36.882Z,34.40
2023-02-24T07:42:04.116Z,28.90
2023-02-24T07:44:30.682Z,28.73
2023-02-24T07:46:59.278Z,29.65
2023-02-24T07:49:30.750Z,25.95
2023-02-24T07:51:57.947Z,19.02
2023-02-24T07:54:28.643Z,24.85
2023-02-24T07:56:58.830Z,22.90
2023-02-24T07:59:28.547Z,22.33
2023-02-24T08:01:56.303Z,20.65
2023-02-24T08:04:30.102Z,18.27
2023-02-24T08:06:58.851Z,20.63
2023-02-24T08:09:47.003Z,21.67
2023-02-24T08:12:22.023Z,16.63
2023-02-24T08:14:52.320Z,13.57
2023-02-24T08:17:23.753Z,18.77
2023-02-24T08:20:12.736Z,16.00
2023-02-24T08:22:47.122Z,18.02
2023-02-24T08:25:18.858Z,17.73
2023-02-24T08:28:06.341Z,16.65
2023-02-24T08:30:38.895Z,18.88
2023-02-24T08:33:07.567Z,20.45
2023-02-24T08:35:37.895Z,15.73
2023-02-24T08:38:23.730Z,14.90
2023-02-24T08:40:54.266Z,16.02
2023-02-24T08:43:30.075Z,14.82
2023-02-24T08:46:13.473Z,15.50
2023-02-24T08:48:42.664Z,14.95
2023-02-24T08:51:28.509Z,20.92
2023-02-24T08:53:57.624Z,14.95
2023-02-24T08:56:30.895Z,15.00
2023-02-24T08:59:05.160Z,14.43
2023-02-24T09:01:40.150Z,12.35
2023-02-24T09:04:09.673Z,11.00
2023-02-24T09:06:50.287Z,10.70
2023-02-24T09:09:22.747Z,12.80
2023-02-24T09:11:57.714Z,11.00
2023-02-24T09:14:36.213Z,10.35
2023-02-24T09:17:11.029Z,13.88
2023-02-24T09:19:41.010Z,10.15
2023-02-24T09:22:29.575Z,13.80
2023-02-24T09:25:17.961Z,12.13
2023-02-24T09:28:07.912Z,9.02
2023-02-24T09:31:01.878Z,14.70
2023-02-24T09:33:41.083Z,12.93
2023-02-24T09:36:12.964Z,12.63
2023-02-24T09:39:00.640Z,7.80
2023-02-24T09:41:56.057Z,10.75
2023-02-24T09:44:27.926Z,13.98
2023-02-24T09:47:08.688Z,12.27
2023-02-24T09:49:49.556Z,10.95
2023-02-24T09:52:18.176Z,13.93
2023-02-24T09:55:08.905Z,8.90
2023-02-24T09:58:06.329Z,9.13
2023-02-24T10:00:44.197Z,12.65
2023-02-24T10:03:41.358Z,16.10
2023-02-24T10:06:12.143Z,8.02
2023-02-24T10:08:46.159Z,11.00
2023-02-24T10:11:14.258Z,14.52
2023-02-24T10:13:54.680Z,12.52
2023-02-24T10:16:24.367Z,8.82
2023-02-24T10:19:01.000Z,11.70
2023-02-24T10:21:48.255Z,11.18
2023-02-24T10:24:29.916Z,9.15
2023-02-24T10:27:08.456Z,11.82
2023-02-24T10:30:19.838Z,11.40
2023-02-24T10:32:58.693Z,11.52
2023-02-24T10:35:34.126Z,9.43
2023-02-24T10:38:05.740Z,12.15
2023-02-24T10:40:46.700Z,11.57
2023-02-24T10:43:30.068Z,12.90
2023-02-24T10:46:06.180Z,13.50
2023-02-24T10:48:42.237Z,9.45
2023-02-24T10:51:21.146Z,11.90
2023-02-24T10:54:08.511Z,12.65
2023-02-24T10:56:44.295Z,9.02
2023-02-24T10:59:32.433Z,13.65
2023-02-24T11:02:24.746Z,11.07
2023-02-24T11:05:04.320Z,10.43
2023-02-24T11:07:45.163Z,10.13
2023-02-24T11:10:25.738Z,8.77
2023-02-24T11:13:15.232Z,9.40
2023-02-24T11:16:08.574Z,9.65
2023-02-24T11:18:36.350Z,9.93
2023-02-24T11:21:05.868Z,8.48
2023-02-24T11:23:42.103Z,7.60
2023-02-24T11:26:25.577Z,7.97
2023-02-24T11:29:25.871Z,11.02
2023-02-24T11:32:27.267Z,8.05
2023-02-24T11:35:11.941Z,8.65
2023-02-24T11:37:54.016Z,8.50
2023-02-24T11:40:25.054Z,4.28
2023-02-24T11:43:18.481Z,4.75
2023-02-24T11:45:54.681Z,8.52
2023-02-24T11:48:27.410Z,5.93
2023-02-24T11:50:59.408Z,7.75
2023-02-24T11:53:42.274Z,7.20
2023-02-24T11:56:23.994Z,7.00
2023-02-24T11:59:09.041Z,6.88
2023-02-24T12:01:44.284Z,7.55
2023-02-24T12:04:18.653Z,5.70
2023-02-24T12:06:57.407Z,5.15
2023-02-24T12:09:30.325Z,7.15
2023-02-24T12:12:14.959Z,5.25
2023-02-24T12:14:56.887Z,7.00
2023-02-24T12:17:49.407Z,6.13
2023-02-24T12:20:23.573Z,6.25
2023-02-24T12:22:55.745Z,7.43
2023-02-24T12:25:31.390Z,5.45
2023-02-24T12:28:25.787Z,6.93
2023-02-24T12:31:03.264Z,4.35
2023-02-24T12:33:49.815Z,8.32
2023-02-24T12:36:36.311Z,4.90
2023-02-24T12:39:17.843Z,6.40
2023-02-24T12:42:03.159Z,7.95
2023-02-24T12:44:39.213Z,5.20
2023-02-24T12:47:14.733Z,7.32
2023-02-24T12:49:59.515Z,7.75
2023-02-24T12:52:31.941Z,9.50
2023-02-24T12:55:11.155Z,5.50
2023-02-24T12:57:49.720Z,7.95
2023-02-24T13:00:30.437Z,5.55
2023-02-24T13:03:10.174Z,9.27
2023-02-24T13:06:13.228Z,5.20
2023-02-24T13:08:55.858Z,6.40
2023-02-24T13:11:47.177Z,4.78
2023-02-24T13:14:17.688Z,7.75
2023-02-24T13:16:44.203Z,7.28
2023-02-24T13:19:25.753Z,5.40
2023-02-24T13:22:19.320Z,5.70
2023-02-24T13:24:59.117Z,6.05
2023-02-24T13:27:40.873Z,4.00
2023-02-24T13:30:18.225Z,6.15
2023-02-24T13:32:47.392Z,6.30
2023-02-24T13:35:13.935Z,5.32
2023-02-24T13:37:43.455Z,4.30
2023-02-24T13:40:19.232Z,6.00
2023-02-24T13:42:58.052Z,6.93
2023-02-24T13:45:29.019Z,7.32
2023-02-24T13:48:16.734Z,8.50
2023-02-24T13:51:02.305Z,5.55
2023-02-24T13:54:10.985Z,4.10
2023-02-24T13:56:45.276Z,5.50
2023-02-24T13:59:20.996Z,8.18
2023-02-24T14:01:51.880Z,3.17
2023-02-24T14:04:24.389Z,4.40
2023-02-24T14:06:59.085Z,4.88
2023-02-24T14:09:30.994Z,2.97
2023-02-24T14:12:04.358Z,4.40
2023-02-24T14:14:31.580Z,5.63
2023-02-24T14:16:58.062Z,5.65
2023-02-24T14:19:25.706Z,8.20
2023-02-24T14:21:58.581Z,3.85
2023-02-24T14:24:27.706Z,5.32
2023-02-24T14:26:56.547Z,6.50
2023-02-24T14:29:29.833Z,6.38
2023-02-24T14:31:59.232Z,7.43
2023-02-24T14:34:29.661Z,6.18
2023-02-24T14:36:59.001Z,6.95
2023-02-24T14:39:29.239Z,6.50
2023-02-24T14:42:08.570Z,6.43
2023-02-24T14:44:44.696Z,7.75
2023-02-24T14:47:14.394Z,5.53
2023-02-24T14:49:41.906Z,6.07
2023-02-24T14:52:19.675Z,8.35
2023-02-24T14:55:08.080Z,6.35
2023-02-24T14:57:40.106Z,8.27
2023-02-24T15:00:17.429Z,7.47
2023-02-24T15:02:51.143Z,4.80
2023-02-24T15:05:17.707Z,4.53
2023-02-24T15:07:45.494Z,7.10
2023-02-24T15:10:21.654Z,4.47
2023-02-24T15:12:53.866Z,4.68
2023-02-24T15:15:24.817Z,7.03
2023-02-24T15:18:00.061Z,4.93
2023-02-24T15:20:28.862Z,6.50
2023-02-24T15:22:57.140Z,6.10
2023-02-24T15:25:41.841Z,4.25
2023-02-24T15:28:31.157Z,5.47
2023-02-24T15:31:29.501Z,6.00
2023-02-24T15:34:02.014Z,5.97
2023-02-24T15:36:33.621Z,6.88
2023-02-24T15:39:05.717Z,6.13
2023-02-24T15:41:45.082Z,6.75
2023-02-24T15:44:31.642Z,9.07
2023-02-24T15:46:59.972Z,9.98
2023-02-24T15:49:26.620Z,7.50
2023-02-24T15:51:54.657Z,7.55
2023-02-24T15:54:31.435Z,7.47
2023-02-24T15:56:59.456Z,6.95
2023-02-24T15:59:26.243Z,7.13
2023-02-24T16:01:53.741Z,5.38
2023-02-24T16:04:21.697Z,6.35
2023-02-24T16:06:57.409Z,5.22
2023-02-24T16:09:28.461Z,5.90
2023-02-24T16:11:55.296Z,5.82
2023-02-24T16:14:21.768Z,5.65
2023-02-24T16:16:48.412Z,6.78
2023-02-24T16:19:15.942Z,7.13
2023-02-24T16:21:43.251Z,5.18
2023-02-24T16:24:09.956Z,5.63
2023-02-24T16:26:39.769Z,9.30
2023-02-24T16:29:11.643Z,8.43
2023-02-24T16:31:39.787Z,7.93
2023-02-24T16:34:07.677Z,6.65
2023-02-24T16:36:34.540Z,8.32
2023-02-24T16:39:01.155Z,6.40
2023-02-24T16:41:30.064Z,9.70
2023-02-24T16:43:56.525Z,8.15
2023-02-24T16:46:23.776Z,6.40
2023-02-24T16:48:53.174Z,4.93
2023-02-24T16:51:20.433Z,5.68
2023-02-24T16:53:46.993Z,4.53
2023-02-24T16:56:15.092Z,5.97
2023-02-24T16:58:42.086Z,5.68
2023-02-24T17:03:45.421Z,6.55
2023-02-24T17:06:11.850Z,7.18
2023-02-24T17:08:41.437Z,6.55
2023-02-24T17:11:12.686Z,7.28
2023-02-24T17:13:39.159Z,6.88
2023-02-24T17:16:05.953Z,5.85
2023-02-24T17:18:32.309Z,6.43
2023-02-24T17:20:59.064Z,6.68
2023-02-24T17:23:25.718Z,7.90
2023-02-24T17:25:54.747Z,11.25
2023-02-24T17:28:21.761Z,8.30
2023-02-24T17:33:15.253Z,7.68
2023-02-24T17:35:42.567Z,9.35
2023-02-24T17:38:13.459Z,6.88
2023-02-24T17:40:40.828Z,6.88
2023-02-24T17:43:07.468Z,4.10
2023-02-24T17:45:34.004Z,6.47
2023-02-24T17:48:00.599Z,3.40
2023-02-24T17:50:27.220Z,6.75
2023-02-24T17:52:53.790Z,9.88
2023-02-24T17:55:20.354Z,8.55
2023-02-24T17:57:46.856Z,4.72
2023-02-24T18:00:15.450Z,6.22
2023-02-24T18:02:41.973Z,7.28
2023-02-24T18:05:10.174Z,5.88
2023-02-24T18:07:37.473Z,6.35
2023-02-24T18:12:32.014Z,6.15
2023-02-24T18:15:07.908Z,6.22
2023-02-24T18:17:35.881Z,5.80
2023-02-24T18:20:02.992Z,9.45
2023-02-24T18:24:56.452Z,7.78
2023-02-24T18:27:22.935Z,8.60
2023-02-24T18:29:49.445Z,28.15
2023-02-24T18:32:16.177Z,52.72
2023-02-24T18:34:42.655Z,33.10
2023-02-24T18:37:09.143Z,12.45
2023-02-24T18:39:35.593Z,9.95
2023-02-24T18:42:02.111Z,9.77
2023-02-24T18:44:28.581Z,12.15
2023-02-24T18:46:55.101Z,7.95
2023-02-24T18:49:21.548Z,9.95
2023-02-24T18:51:48.782Z,10.38
2023-02-24T18:54:16.316Z,10.38
2023-02-24T18:56:43.051Z,11.07
2023-02-24T18:59:10.061Z,9.90
2023-02-24T19:01:39.139Z,9.00
2023-02-24T19:04:07.996Z,13.68
2023-02-24T19:06:35.621Z,11.68
2023-02-24T19:09:06.569Z,14.18
2023-02-24T19:11:33.434Z,13.95
2023-02-24T19:14:00.671Z,13.63
2023-02-24T19:16:27.998Z,15.00
2023-02-24T19:18:56.607Z,13.40
2023-02-24T19:21:24.759Z,14.18
2023-02-24T19:23:51.476Z,14.02
2023-02-24T19:28:46.506Z,15.50
2023-02-24T19:31:19.330Z,13.30
2023-02-24T19:33:45.875Z,15.48
2023-02-24T19:36:12.422Z,14.98
2023-02-24T19:38:41.974Z,15.15
2023-02-24T19:41:08.483Z,17.92
2023-02-24T19:43:35.065Z,14.00
2023-02-24T19:46:10.088Z,16.63
2023-02-24T19:48:36.756Z,14.05
2023-02-24T19:51:17.999Z,13.77
2023-02-24T19:53:44.776Z,12.27
2023-02-24T19:56:11.781Z,14.27
2023-02-24T19:58:38.506Z,15.82
2023-02-24T20:01:10.211Z,12.07
2023-02-24T20:03:38.277Z,13.93
2023-02-24T20:06:05.628Z,12.48
2023-02-24T20:08:35.022Z,14.40
2023-02-24T20:11:03.175Z,8.85
2023-02-24T20:13:30.654Z,14.35
2023-02-24T20:16:08.179Z,11.50
2023-02-24T20:18:35.074Z,7.97
2023-02-24T20:21:01.539Z,7.25
2023-02-24T20:23:28.505Z,5.55
2023-02-24T20:25:56.218Z,3.30
2023-02-24T20:28:23.724Z,4.03
2023-02-24T20:30:51.271Z,4.63
2023-02-24T20:33:18.531Z,3.80
2023-02-24T20:35:45.263Z,3.03
2023-02-24T20:38:12.225Z,4.18
2023-02-24T20:40:38.741Z,3.92
2023-02-24T20:43:06.971Z,5.85
2023-02-24T20:45:35.016Z,5.22
2023-02-24T20:48:02.573Z,6.80
2023-02-24T20:50:29.822Z,11.10
2023-02-24T20:52:56.531Z,10.50
2023-02-24T20:55:23.661Z,11.55
2023-02-24T20:57:50.345Z,8.43
2023-02-24T21:00:17.369Z,8.40
2023-02-24T21:02:44.067Z,6.68
2023-02-24T21:05:19.369Z,6.57
2023-02-24T21:07:46.356Z,5.43
2023-02-24T21:10:13.556Z,5.57
2023-02-24T21:12:40.489Z,8.48
2023-02-24T21:15:07.921Z,6.82
2023-02-24T21:17:35.187Z,5.78
2023-02-24T21:20:01.675Z,5.78
2023-02-24T21:22:31.332Z,4.22
2023-02-24T21:24:58.510Z,6.43
2023-02-24T21:27:26.041Z,6.22
2023-02-24T21:29:53.370Z,4.97
2023-02-24T21:32:19.983Z,5.43
2023-02-24T21:34:46.581Z,7.97
2023-02-24T21:37:13.040Z,5.80
2023-02-24T21:39:39.455Z,5.95
2023-02-24T21:42:07.330Z,6.28
2023-02-24T21:44:33.786Z,6.20
2023-02-24T21:47:00.187Z,6.05
2023-02-24T21:49:26.611Z,10.73
2023-02-24T21:51:55.135Z,5.85
2023-02-24T21:54:21.912Z,7.57
2023-02-24T21:56:48.314Z,10.07
2023-02-24T21:59:14.751Z,5.75
2023-02-24T22:01:43.681Z,6.03
2023-02-24T22:04:13.416Z,6.43
2023-02-24T22:06:41.302Z,6.75
2023-02-24T22:09:09.617Z,9.60
2023-02-24T22:11:39.211Z,4.55
2023-02-24T22:14:13.028Z,5.03
2023-02-24T22:16:40.107Z,6.00
2023-02-24T22:19:06.914Z,6.18
2023-02-24T22:21:33.846Z,6.72
2023-02-24T22:24:02.384Z,6.45
2023-02-24T22:26:30.390Z,8.40
2023-02-24T22:28:57.051Z,7.07
2023-02-24T22:31:25.915Z,7.07
2023-02-24T22:33:53.123Z,5.05
2023-02-24T22:38:48.518Z,6.40
2023-02-24T22:41:18.469Z,6.60
2023-02-24T22:43:45.767Z,6.88
2023-02-24T22:46:14.649Z,6.03
2023-02-24T22:48:41.431Z,7.22
2023-02-24T22:51:10.213Z,10.77
2023-02-24T22:53:39.323Z,5.72
2023-02-24T22:56:06.777Z,6.82
2023-02-24T22:58:33.397Z,7.45
2023-02-24T23:03:33.041Z,5.97
2023-02-24T23:06:05.247Z,6.43
2023-02-24T23:08:34.732Z,7.95
2023-02-24T23:11:14.039Z,5.85
2023-02-24T23:13:42.583Z,9.23
2023-02-24T23:16:13.883Z,5.60
2023-02-24T23:18:41.438Z,6.97
2023-02-24T23:21:09.952Z,9.18
2023-02-24T23:23:37.315Z,7.18
2023-02-24T23:26:05.319Z,5.85
2023-02-24T23:28:32.256Z,6.40
2023-02-24T23:30:58.801Z,7.32
2023-02-24T23:33:25.714Z,7.63
2023-02-24T23:35:52.232Z,9.90
2023-02-24T23:38:18.736Z,8.88
2023-02-24T23:40:50.641Z,7.57
2023-02-24T23:43:18.042Z,5.22
2023-02-24T23:45:44.952Z,11.02
2023-02-24T23:48:13.321Z,7.93
2023-02-24T23:50:41.468Z,8.10
2023-02-24T23:53:08.856Z,6.22
2023-02-24T23:55:35.935Z,5.80
2023-02-24T23:58:03.768Z,11.07
